Onalaska, Texas
Current Conditions -  °F | °C
As of 9:53 AM on Monday 26 Jan 2015 (Local Time) from KUTS Reporting Station
Clear Clear  
Wind Chill: 54°   Ceiling: Unl
Heat Index: 54°   Visibility: 10mi
Dew Point: 32°   Wind: 6mph
Humidity: 43%   Direction: 330°NNW
Pressure: 30.25"   Gusts: NA
Location:  30.8°N, 95.11°W
Report Text: KUTS 261553Z AUTO 33005KT 10SM CLR 12/00 A3025 RMK AO2 SLP243 T01220000
Loading
Personal Weather Stations






























Interactive Weather Map New forecast layout! Learn more

10-Day Weather Forecast

Advertisements
Track Severe Weather on mobile